Etusivu
METAR-TAF:

METAR-TAF

Lentoasemat :

Gamvik, Norja

Leveyspiiri: 71-02N, Pituuspiiri: 027-50E, korkeus merenpinnasta: 1 m

Tämänhetkinen sää

Tämä raportti tehtiin 4 tuntia ja 25 minuuttia sitten, kello 19.50 UTC
Tuuli 7 kn lounaasta
Lämpötila 9°C
Kosteus 66%
Ilmanpaine 1011 hPa
Näkyvyys 10 km tai enemmän
Hajonneita pilviä 4300 ft:n korkeudessa

METAR: ENMH 281950Z 23007KT 9999 BKN043 09/03 Q1011

Aika: 02:15 (00:15 UTC)


TAF: puuttuu

Säähavainnot ja -ennusteet yli 4000 lentoasemalta (METAR- ja TAF-raportit).

Käytössä olevat sääasemat on merkitty karttaan keltaisilla ja punaisilla pisteillä.

Aseta hiiri pisteen päälle nähdäksesi sääaseman nimen.

Klikkaa sitten nähdäksesi säähavainnot ja -ennusteet.

Kartan vaihtaminen: klikkaa mustalla rastilla varustettuja vihreitä pisteitä, niin voit zoomata sisään; viivalla varustettua vihreää pistettä, niin voit zoomata ulos tai vihreitä nuolia, niin pääset viereisille kartoille.


METAR-TAF: